Republica Dominicana

TAF-AILA

SANTO DOMINGO 10 DE AGOSTO DEL 2020

                                                                                                 AEROP. INT. LAS AMERICAS JFPG-

 

 

FTDR31 MDSD 101600Z
TAF

TAF MDPP 101600Z 1018/1118 09015KT 9999 SCT020 PROB30 1023/1100 8000 -RA BKN016 BECMG 1114/1116 00000KT=

TAF MDST 101600Z 1018/1118 16016KT 9999 SCT022 SCT300 PROB30 1018/1100 7000 -TSRA FEW016CB BKN018=

TAF MDPC 101600Z 1018/1118 08012KT 9999 SCT025=

TAF MDBH 101600Z 1018/1118 13012KT 9999 FEW020CB SCT022 SCT300 PROB30 1019/1101 8000 -SH FEW016C BKN018=

TAF MDJB 101600Z 1018/1118 36010KT 9999 SCT020=

TAF MDSD 101600Z 1018/1118 05010KT 9999 SCT020 PROB30 1020/1102 8000 -SH FEW014CB BKN016=

TAF MDLR 101600Z 1018/1118 09008KT 9999 SCT020 PR0B30 1018/1100 7000 -RA BKN018 BECMG 1100/1102 00000KT=

TAF MDCY 101600Z 1018/1118 09008KT 9999 SCT020=

 

MDPP AEROPUERTO INTERNACIONAL LA UNION PUERTO PLATA

MDST AEROPUERTO INTERNACIONAL DE SANTIAGO

MDPC AEROPUERTO INTERNACIONAL PUNTA CANA

MDBH AEROPUERTO INTERNACIONAL DE BARAHONA

MDJB AEROPUERTO INTERNACIONAL JOAQUIN BALAGUER

MDSD AEROPUERTO INTERNACIONAL LAS AMERICAS

MDLR AEROPUERTO INTERNACIONAL LA ROMANA

MDCY AEROPUERTO INTERNACIONAL DE CATEY

HENRIQUEZ A.

MDPP// S ROSARIO

MDST// E BURGOS

MDPC// R RODRIGUEZ 

MDBH// F MEDINA

MDJB// Y BENCOSME

MDLR// A ESPINOSSA

MDCY// P BENITEZ




Tamaño letra

Contraste

Otros